Whitehorse, Canada
Current Conditions -  °F | °C
As of 12:00 PM on Friday 19 Dec 2014 (Local Time) from CYXY Reporting Station
Broken Clouds Broken Clouds  
Wind Chill: -4°   Ceiling: 11000
Heat Index:   Visibility: 40mi
Dew Point:   Wind: 8mph
Humidity: 85%   Direction: 170°S
Pressure: 29.36"   Gusts: NA
Location:  60.72°N, 135.05°W
Report Text: CYXY 192000Z 17007KT 40SM FEW040 BKN110 BKN170 M13/M15 A2936 RMK SC1AC4AC2 SLP001
Loading
Personal Weather Stations






























Interactive Weather Map New forecast layout! Learn more

10-Day Weather Forecast

Advertisements
Track Severe Weather on mobile